sensor_id;sensor_type;location;lat;lon;timestamp;pressure;altitude;pressure_sealevel;temperature;humidity
63115;BME280;49208;50.874;6.466;2023-04-07T06:01:42;100387.22;;;6.68;100.00
63115;BME280;49208;50.874;6.466;2023-04-07T06:04:07;100392.50;;;6.70;100.00
63115;BME280;49208;50.874;6.466;2023-04-07T06:06:33;100393.41;;;6.68;100.00
63115;BME280;49208;50.874;6.466;2023-04-07T06:08:58;100396.09;;;6.67;100.00
63115;BME280;49208;50.874;6.466;2023-04-07T06:11:25;100398.72;;;6.68;100.00
63115;BME280;49208;50.874;6.466;2023-04-07T06:13:51;100405.75;;;6.68;100.00
63115;BME280;49208;50.874;6.466;2023-04-07T06:16:16;100403.16;;;6.66;100.00
63115;BME280;49208;50.874;6.466;2023-04-07T06:18:42;100407.56;;;6.66;100.00
63115;BME280;49208;50.874;6.466;2023-04-07T06:21:07;100419.06;;;6.65;100.00
63115;BME280;49208;50.874;6.466;2023-04-07T06:23:33;100417.28;;;6.64;100.00
63115;BME280;49208;50.874;6.466;2023-04-07T06:25:58;100416.44;;;6.63;100.00
63115;BME280;49208;50.874;6.466;2023-04-07T06:28:24;100420.78;;;6.66;100.00
63115;BME280;49208;50.874;6.466;2023-04-07T06:30:50;100428.69;;;6.67;100.00
63115;BME280;49208;50.874;6.466;2023-04-07T06:33:15;100427.81;;;6.68;100.00
63115;BME280;49208;50.874;6.466;2023-04-07T06:35:40;100427.81;;;6.68;100.00
63115;BME280;49208;50.874;6.466;2023-04-07T06:38:06;100426.03;;;6.69;100.00
63115;BME280;49208;50.874;6.466;2023-04-07T06:40:32;100428.59;;;6.72;100.00
63115;BME280;49208;50.874;6.466;2023-04-07T06:42:57;100433.88;;;6.74;100.00
63115;BME280;49208;50.874;6.466;2023-04-07T06:45:23;100430.34;;;6.73;100.00
63115;BME280;49208;50.874;6.466;2023-04-07T06:47:48;100432.06;;;6.74;100.00
63115;BME280;49208;50.874;6.466;2023-04-07T06:50:14;100433.81;;;6.77;100.00
63115;BME280;49208;50.874;6.466;2023-04-07T06:52:39;100432.03;;;6.77;100.00
63115;BME280;49208;50.874;6.466;2023-04-07T06:55:05;100442.53;;;6.80;100.00
63115;BME280;49208;50.874;6.466;2023-04-07T06:57:32;100441.56;;;6.84;100.00
63115;BME280;49208;50.874;6.466;2023-04-07T06:59:57;100439.78;;;6.86;100.00
63115;BME280;49208;50.874;6.466;2023-04-07T07:02:22;100442.41;;;6.88;100.00
63115;BME280;49208;50.874;6.466;2023-04-07T07:04:49;100446.81;;;6.89;100.00
63115;BME280;49208;50.874;6.466;2023-04-07T07:07:14;100450.22;;;6.93;100.00
63115;BME280;49208;50.874;6.466;2023-04-07T07:09:40;100455.50;;;6.94;100.00
63115;BME280;49208;50.874;6.466;2023-04-07T07:12:05;100451.88;;;6.98;100.00
63115;BME280;49208;50.874;6.466;2023-04-07T07:14:31;100458.84;;;7.02;100.00
63115;BME280;49208;50.874;6.466;2023-04-07T07:16:56;100464.13;;;7.04;100.00
63115;BME280;49208;50.874;6.466;2023-04-07T07:19:21;100465.84;;;7.06;100.00
63115;BME280;49208;50.874;6.466;2023-04-07T07:21:47;100467.63;;;7.06;100.00
63115;BME280;49208;50.874;6.466;2023-04-07T07:24:12;100464.06;;;7.05;100.00
63115;BME280;49208;50.874;6.466;2023-04-07T07:26:38;100471.03;;;7.09;100.00
63115;BME280;49208;50.874;6.466;2023-04-07T07:29:05;100472.78;;;7.12;100.00
63115;BME280;49208;50.874;6.466;2023-04-07T07:31:30;100472.69;;;7.15;100.00
63115;BME280;49208;50.874;6.466;2023-04-07T07:33:56;100475.25;;;7.20;100.00
63115;BME280;49208;50.874;6.466;2023-04-07T07:36:21;100472.53;;;7.24;100.00
63115;BME280;49208;50.874;6.466;2023-04-07T07:38:49;100479.41;;;7.32;100.00
63115;BME280;49208;50.874;6.466;2023-04-07T07:41:14;100478.41;;;7.37;100.00
63115;BME280;49208;50.874;6.466;2023-04-07T07:43:40;100477.44;;;7.41;100.00
63115;BME280;49208;50.874;6.466;2023-04-07T07:46:05;100482.63;;;7.46;100.00
63115;BME280;49208;50.874;6.466;2023-04-07T07:48:31;100476.38;;;7.50;100.00
63115;BME280;49208;50.874;6.466;2023-04-07T07:50:56;100480.59;;;7.57;100.00
63115;BME280;49208;50.874;6.466;2023-04-07T07:53:21;100482.22;;;7.64;100.00
63115;BME280;49208;50.874;6.466;2023-04-07T07:55:47;100480.31;;;7.69;100.00
63115;BME280;49208;50.874;6.466;2023-04-07T07:58:13;100480.25;;;7.74;100.00
63115;BME280;49208;50.874;6.466;2023-04-07T08:00:39;100483.63;;;7.79;100.00
63115;BME280;49208;50.874;6.466;2023-04-07T08:03:04;100485.25;;;7.86;100.00
63115;BME280;49208;50.874;6.466;2023-04-07T08:05:30;100489.47;;;7.94;100.00
63115;BME280;49208;50.874;6.466;2023-04-07T08:07:57;100495.50;;;8.00;100.00
63115;BME280;49208;50.874;6.466;2023-04-07T08:10:22;100496.31;;;8.04;100.00
63115;BME280;49208;50.874;6.466;2023-04-07T08:12:49;100491.84;;;8.06;100.00
63115;BME280;49208;50.874;6.466;2023-04-07T08:15:15;100497.88;;;8.11;100.00
63115;BME280;49208;50.874;6.466;2023-04-07T08:17:41;100503.94;;;8.18;100.00
63115;BME280;49208;50.874;6.466;2023-04-07T08:20:06;100507.44;;;8.18;100.00
63115;BME280;49208;50.874;6.466;2023-04-07T08:22:32;100503.94;;;8.18;100.00
63115;BME280;49208;50.874;6.466;2023-04-07T08:24:58;100511.97;;;8.13;100.00
63115;BME280;49208;50.874;6.466;2023-04-07T08:27:23;100512.09;;;8.08;100.00
63115;BME280;49208;50.874;6.466;2023-04-07T08:29:58;100513.06;;;8.04;100.00
63115;BME280;49208;50.874;6.466;2023-04-07T08:32:23;100514.97;;;7.99;100.00
63115;BME280;49208;50.874;6.466;2023-04-07T08:34:49;100519.50;;;7.94;100.00
63115;BME280;49208;50.874;6.466;2023-04-07T08:37:14;100518.78;;;7.87;100.00
63115;BME280;49208;50.874;6.466;2023-04-07T08:39:39;100521.44;;;7.87;100.00
63115;BME280;49208;50.874;6.466;2023-04-07T08:42:06;100521.44;;;7.87;100.00
63115;BME280;49208;50.874;6.466;2023-04-07T08:44:32;100525.81;;;7.88;100.00
63115;BME280;49208;50.874;6.466;2023-04-07T08:47:02;100511.56;;;7.93;100.00
63115;BME280;49208;50.874;6.466;2023-04-07T08:49:32;100519.34;;;8.00;100.00
63115;BME280;49208;50.874;6.466;2023-04-07T08:51:59;100528.09;;;8.05;100.00
63115;BME280;49208;50.874;6.466;2023-04-07T08:54:25;100527.03;;;8.13;100.00
63115;BME280;49208;50.874;6.466;2023-04-07T08:56:51;100525.97;;;8.20;100.00
63115;BME280;49208;50.874;6.466;2023-04-07T08:59:16;100534.63;;;8.28;100.00
63115;BME280;49208;50.874;6.466;2023-04-07T09:01:50;100535.38;;;8.32;100.00
63115;BME280;49208;50.874;6.466;2023-04-07T09:04:16;100539.69;;;8.37;100.00
63115;BME280;49208;50.874;6.466;2023-04-07T09:06:42;100538.81;;;8.37;100.00
63115;BME280;49208;50.874;6.466;2023-04-07T09:09:07;100547.66;;;8.36;100.00
63115;BME280;49208;50.874;6.466;2023-04-07T09:11:38;100540.63;;;8.35;100.00
63115;BME280;49208;50.874;6.466;2023-04-07T09:14:04;100541.50;;;8.35;100.00
63115;BME280;49208;50.874;6.466;2023-04-07T09:16:29;100548.47;;;8.41;100.00
63115;BME280;49208;50.874;6.466;2023-04-07T09:18:55;100550.13;;;8.45;100.00
63115;BME280;49208;50.874;6.466;2023-04-07T09:21:21;100555.38;;;8.46;100.00
63115;BME280;49208;50.874;6.466;2023-04-07T09:23:46;100548.16;;;8.53;100.00
63115;BME280;49208;50.874;6.466;2023-04-07T09:28:48;100547.47;;;8.79;100.00
63115;BME280;49208;50.874;6.466;2023-04-07T09:31:15;100551.72;;;8.86;100.00
63115;BME280;49208;50.874;6.466;2023-04-07T09:33:41;100550.59;;;8.95;100.00
63115;BME280;49208;50.874;6.466;2023-04-07T09:36:06;100546.06;;;8.99;100.00
63115;BME280;49208;50.874;6.466;2023-04-07T09:38:36;100551.38;;;8.99;100.00
63115;BME280;49208;50.874;6.466;2023-04-07T09:41:06;100549.81;;;8.90;100.00
63115;BME280;49208;50.874;6.466;2023-04-07T09:43:43;100544.75;;;8.82;100.00
63115;BME280;49208;50.874;6.466;2023-04-07T09:46:13;100550.81;;;8.86;100.00
63115;BME280;49208;50.874;6.466;2023-04-07T09:48:40;100549.75;;;8.93;100.00
63115;BME280;49208;50.874;6.466;2023-04-07T09:51:11;100543.34;;;9.00;100.00
63115;BME280;49208;50.874;6.466;2023-04-07T09:53:46;100551.38;;;8.99;100.00
63115;BME280;49208;50.874;6.466;2023-04-07T09:56:14;100549.59;;;8.99;100.00
63115;BME280;49208;50.874;6.466;2023-04-07T09:58:44;100548.63;;;9.02;100.00
63115;BME280;49208;50.874;6.466;2023-04-07T10:01:11;100548.84;;;8.94;100.00
63115;BME280;49208;50.874;6.466;2023-04-07T10:03:37;100552.56;;;8.87;100.00
63115;BME280;49208;50.874;6.466;2023-04-07T10:06:03;100555.47;;;8.78;100.00
63115;BME280;49208;50.874;6.466;2023-04-07T10:08:31;100560.19;;;8.66;100.00
63115;BME280;49208;50.874;6.466;2023-04-07T10:10:58;100555.97;;;8.59;100.00
63115;BME280;49208;50.874;6.466;2023-04-07T10:13:27;100555.28;;;8.51;100.00
63115;BME280;49208;50.874;6.466;2023-04-07T10:15:53;100548.34;;;8.45;100.00
63115;BME280;49208;50.874;6.466;2023-04-07T10:18:19;100551.00;;;8.45;100.00
63115;BME280;49208;50.874;6.466;2023-04-07T10:20:46;100560.50;;;8.54;100.00
63115;BME280;49208;50.874;6.466;2023-04-07T10:23:34;100564.69;;;8.63;100.00
63115;BME280;49208;50.874;6.466;2023-04-07T10:26:01;100560.06;;;8.71;100.00
63115;BME280;49208;50.874;6.466;2023-04-07T10:28:29;100559.13;;;8.74;100.00
63115;BME280;49208;50.874;6.466;2023-04-07T10:30:56;100557.38;;;8.73;100.00
63115;BME280;49208;50.874;6.466;2023-04-07T10:33:46;100565.34;;;8.73;100.00
63115;BME280;49208;50.874;6.466;2023-04-07T10:36:12;100568.81;;;8.75;100.00
63115;BME280;49208;50.874;6.466;2023-04-07T10:38:38;100563.31;;;8.82;100.00
63115;BME280;49208;50.874;6.466;2023-04-07T10:41:35;100562.91;;;8.98;100.00
63115;BME280;49208;50.874;6.466;2023-04-07T10:44:04;100565.34;;;9.05;100.00
63115;BME280;49208;50.874;6.466;2023-04-07T10:47:02;100575.13;;;9.05;100.00
63115;BME280;49208;50.874;6.466;2023-04-07T10:49:29;100579.84;;;8.92;100.00
63115;BME280;49208;50.874;6.466;2023-04-07T10:54:39;100577.91;;;8.66;100.00
63115;BME280;49208;50.874;6.466;2023-04-07T10:57:05;100579.09;;;8.53;100.00
63115;BME280;49208;50.874;6.466;2023-04-07T10:59:36;100583.78;;;8.43;100.00
63115;BME280;49208;50.874;6.466;2023-04-07T11:04:40;100583.19;;;8.30;100.00
63115;BME280;49208;50.874;6.466;2023-04-07T11:07:06;100577.91;;;8.28;100.00
63115;BME280;49208;50.874;6.466;2023-04-07T11:09:32;100584.88;;;8.33;100.00
63115;BME280;49208;50.874;6.466;2023-04-07T11:11:57;100585.59;;;8.41;100.00
63115;BME280;49208;50.874;6.466;2023-04-07T11:14:30;100587.72;;;8.62;100.00
63115;BME280;49208;50.874;6.466;2023-04-07T11:16:57;100586.97;;;8.92;100.00
63115;BME280;49208;50.874;6.466;2023-04-07T11:19:23;100587.94;;;9.22;100.00
63115;BME280;49208;50.874;6.466;2023-04-07T11:21:48;100587.94;;;9.53;100.00
63115;BME280;49208;50.874;6.466;2023-04-07T11:24:35;100584.44;;;9.81;100.00
63115;BME280;49208;50.874;6.466;2023-04-07T11:27:04;100585.00;;;9.92;99.34
63115;BME280;49208;50.874;6.466;2023-04-07T11:29:31;100582.00;;;10.03;97.88
63115;BME280;49208;50.874;6.466;2023-04-07T11:31:58;100585.19;;;10.14;97.19
63115;BME280;49208;50.874;6.466;2023-04-07T11:34:33;100585.81;;;10.22;96.95
63115;BME280;49208;50.874;6.466;2023-04-07T11:37:22;100590.13;;;10.26;95.33
63115;BME280;49208;50.874;6.466;2023-04-07T11:39:54;100589.50;;;10.18;95.34
63115;BME280;49208;50.874;6.466;2023-04-07T11:42:37;100596.00;;;10.08;94.41
63115;BME280;49208;50.874;6.466;2023-04-07T11:45:03;100600.66;;;10.01;95.12
63115;BME280;49208;50.874;6.466;2023-04-07T11:47:36;100598.09;;;9.98;94.73
63115;BME280;49208;50.874;6.466;2023-04-07T11:50:02;100590.25;;;9.94;95.25
63115;BME280;49208;50.874;6.466;2023-04-07T11:52:27;100604.31;;;9.97;95.06
63115;BME280;49208;50.874;6.466;2023-04-07T11:54:53;100597.81;;;10.07;94.53
63115;BME280;49208;50.874;6.466;2023-04-07T11:57:27;100607.91;;;10.24;95.28
63115;BME280;49208;50.874;6.466;2023-04-07T12:00:08;100605.75;;;10.37;94.61
63115;BME280;49208;50.874;6.466;2023-04-07T12:02:35;100609.81;;;10.49;93.72
63115;BME280;49208;50.874;6.466;2023-04-07T12:05:01;100615.63;;;10.62;93.48
63115;BME280;49208;50.874;6.466;2023-04-07T12:07:26;100611.03;;;10.67;92.65
63115;BME280;49208;50.874;6.466;2023-04-07T12:09:55;100618.91;;;10.70;91.11
63115;BME280;49208;50.874;6.466;2023-04-07T12:12:28;100615.53;;;10.65;90.92
63115;BME280;49208;50.874;6.466;2023-04-07T12:14:55;100619.56;;;10.50;90.79
63115;BME280;49208;50.874;6.466;2023-04-07T12:17:21;100624.38;;;10.37;91.39
63115;BME280;49208;50.874;6.466;2023-04-07T12:19:47;100622.00;;;10.28;91.59
63115;BME280;49208;50.874;6.466;2023-04-07T12:22:13;100619.50;;;10.23;91.25
63115;BME280;49208;50.874;6.466;2023-04-07T12:24:38;100628.31;;;10.25;90.72
63115;BME280;49208;50.874;6.466;2023-04-07T12:27:03;100630.84;;;10.28;91.28
63115;BME280;49208;50.874;6.466;2023-04-07T12:29:29;100628.19;;;10.30;90.99
63115;BME280;49208;50.874;6.466;2023-04-07T12:31:55;100623.56;;;10.35;92.75
63115;BME280;49208;50.874;6.466;2023-04-07T12:34:20;100628.69;;;10.41;91.85
63115;BME280;49208;50.874;6.466;2023-04-07T12:36:46;100629.41;;;10.48;90.75
63115;BME280;49208;50.874;6.466;2023-04-07T12:39:12;100636.75;;;10.66;91.55
63115;BME280;49208;50.874;6.466;2023-04-07T12:41:37;100636.53;;;10.72;90.35
63115;BME280;49208;50.874;6.466;2023-04-07T12:44:04;100631.22;;;10.72;89.76
63115;BME280;49208;50.874;6.466;2023-04-07T12:46:29;100638.47;;;10.69;90.03
63115;BME280;49208;50.874;6.466;2023-04-07T12:48:54;100635.88;;;10.66;88.81
63115;BME280;49208;50.874;6.466;2023-04-07T12:51:20;100642.22;;;10.62;89.47
63115;BME280;49208;50.874;6.466;2023-04-07T12:53:46;100635.25;;;10.58;90.75
63115;BME280;49208;50.874;6.466;2023-04-07T12:56:12;100633.75;;;10.50;89.77
63115;BME280;49208;50.874;6.466;2023-04-07T12:58:38;100631.97;;;10.49;89.93
63115;BME280;49208;50.874;6.466;2023-04-07T13:01:04;100636.56;;;10.46;89.28
63115;BME280;49208;50.874;6.466;2023-04-07T13:03:30;100632.09;;;10.46;89.99
63115;BME280;49208;50.874;6.466;2023-04-07T13:05:55;100633.13;;;10.42;89.68
63115;BME280;49208;50.874;6.466;2023-04-07T13:08:25;100633.94;;;10.44;90.36
63115;BME280;49208;50.874;6.466;2023-04-07T13:10:51;100634.59;;;10.51;91.01
63115;BME280;49208;50.874;6.466;2023-04-07T13:13:16;100633.63;;;10.54;90.25
63115;BME280;49208;50.874;6.466;2023-04-07T13:15:42;100637.16;;;10.54;88.53
63115;BME280;49208;50.874;6.466;2023-04-07T13:18:07;100642.22;;;10.62;89.09
63115;BME280;49208;50.874;6.466;2023-04-07T13:20:33;100642.06;;;10.66;88.18
63115;BME280;49208;50.874;6.466;2023-04-07T13:22:58;100642.66;;;10.76;88.42
63115;BME280;49208;50.874;6.466;2023-04-07T13:25:24;100645.28;;;10.78;87.45
63115;BME280;49208;50.874;6.466;2023-04-07T13:27:49;100650.69;;;10.75;87.87
63115;BME280;49208;50.874;6.466;2023-04-07T13:30:14;100650.03;;;10.68;87.93
63115;BME280;49208;50.874;6.466;2023-04-07T13:32:40;100652.72;;;10.66;87.63
63115;BME280;49208;50.874;6.466;2023-04-07T13:35:06;100651.00;;;10.65;88.61
63115;BME280;49208;50.874;6.466;2023-04-07T13:37:32;100644.75;;;10.66;88.52
63115;BME280;49208;50.874;6.466;2023-04-07T13:39:57;100654.13;;;10.78;87.98
63115;BME280;49208;50.874;6.466;2023-04-07T13:42:22;100653.22;;;10.79;88.21
63115;BME280;49208;50.874;6.466;2023-04-07T13:44:48;100647.97;;;10.76;89.66
63115;BME280;49208;50.874;6.466;2023-04-07T13:47:16;100652.28;;;10.52;89.43
63115;BME280;49208;50.874;6.466;2023-04-07T13:49:47;100658.22;;;10.34;90.98
63115;BME280;49208;50.874;6.466;2023-04-07T13:52:12;100657.13;;;10.11;91.02
63115;BME280;49208;50.874;6.466;2023-04-07T13:54:38;100655.66;;;10.01;92.26
63115;BME280;49208;50.874;6.466;2023-04-07T13:57:03;100652.31;;;9.94;92.89
63115;BME280;49208;50.874;6.466;2023-04-07T13:59:29;100662.50;;;10.08;94.48
63115;BME280;49208;50.874;6.466;2023-04-07T14:01:55;100661.22;;;10.21;93.57
63115;BME280;49208;50.874;6.466;2023-04-07T14:04:20;100658.13;;;10.37;92.47
63115;BME280;49208;50.874;6.466;2023-04-07T14:06:47;100652.06;;;10.60;90.83
63115;BME280;49208;50.874;6.466;2023-04-07T14:09:13;100651.56;;;10.75;90.38
63115;BME280;49208;50.874;6.466;2023-04-07T14:11:38;100643.06;;;10.90;90.35
63115;BME280;49208;50.874;6.466;2023-04-07T14:14:04;100646.78;;;11.11;89.00
63115;BME280;49208;50.874;6.466;2023-04-07T14:16:30;100638.38;;;11.24;87.63
63115;BME280;49208;50.874;6.466;2023-04-07T14:18:55;100638.78;;;11.37;87.12
63115;BME280;49208;50.874;6.466;2023-04-07T14:21:21;100647.28;;;11.48;85.20
63115;BME280;49208;50.874;6.466;2023-04-07T14:23:46;100641.06;;;11.47;83.87
63115;BME280;49208;50.874;6.466;2023-04-07T14:26:12;100643.50;;;11.53;83.47
63115;BME280;49208;50.874;6.466;2023-04-07T14:28:37;100646.53;;;11.44;83.80
63115;BME280;49208;50.874;6.466;2023-04-07T14:31:03;100645.94;;;11.36;82.73
63115;BME280;49208;50.874;6.466;2023-04-07T14:33:29;100651.03;;;11.42;83.10
63115;BME280;49208;50.874;6.466;2023-04-07T14:35:54;100649.63;;;11.32;81.95
63115;BME280;49208;50.874;6.466;2023-04-07T14:38:20;100646.91;;;11.33;83.71
63115;BME280;49208;50.874;6.466;2023-04-07T14:40:50;100652.84;;;11.17;84.27
63115;BME280;49208;50.874;6.466;2023-04-07T14:43:16;100653.91;;;11.11;83.61
63115;BME280;49208;50.874;6.466;2023-04-07T14:45:42;100652.06;;;10.86;84.85
63115;BME280;49208;50.874;6.466;2023-04-07T14:48:07;100658.78;;;10.71;84.98
63115;BME280;49208;50.874;6.466;2023-04-07T14:50:33;100655.19;;;10.46;85.61
63115;BME280;49208;50.874;6.466;2023-04-07T14:52:59;100654.66;;;10.33;86.08
63115;BME280;49208;50.874;6.466;2023-04-07T14:55:25;100659.44;;;10.22;87.33
63115;BME280;49208;50.874;6.466;2023-04-07T14:57:50;100663.16;;;10.16;88.66
63115;BME280;49208;50.874;6.466;2023-04-07T15:00:16;100671.09;;;10.18;88.91
63115;BME280;49208;50.874;6.466;2023-04-07T15:02:41;100660.34;;;10.21;89.34
63115;BME280;49208;50.874;6.466;2023-04-07T15:05:07;100666.63;;;10.18;89.43
63115;BME280;49208;50.874;6.466;2023-04-07T15:07:32;100660.97;;;10.29;89.45
63115;BME280;49208;50.874;6.466;2023-04-07T15:09:58;100669.88;;;10.29;90.77
63115;BME280;49208;50.874;6.466;2023-04-07T15:12:24;100670.56;;;10.36;90.60
63115;BME280;49208;50.874;6.466;2023-04-07T15:14:51;100678.50;;;10.38;91.29
63115;BME280;49208;50.874;6.466;2023-04-07T15:17:16;100680.53;;;10.29;90.29
63115;BME280;49208;50.874;6.466;2023-04-07T15:19:42;100678.91;;;10.22;90.44
63115;BME280;49208;50.874;6.466;2023-04-07T15:22:08;100681.75;;;10.16;90.64
63115;BME280;49208;50.874;6.466;2023-04-07T15:24:33;100687.94;;;10.17;91.55
63115;BME280;49208;50.874;6.466;2023-04-07T15:26:59;100681.75;;;10.16;91.97
63115;BME280;49208;50.874;6.466;2023-04-07T15:29:24;100685.84;;;10.28;93.25
63115;BME280;49208;50.874;6.466;2023-04-07T15:31:49;100688.56;;;10.26;91.26
63115;BME280;49208;50.874;6.466;2023-04-07T15:34:15;100685.91;;;10.26;91.04
63115;BME280;49208;50.874;6.466;2023-04-07T15:36:40;100693.84;;;10.29;91.84
63115;BME280;49208;50.874;6.466;2023-04-07T15:39:06;100690.19;;;10.32;92.81
63115;BME280;49208;50.874;6.466;2023-04-07T15:41:32;100695.38;;;10.37;93.25
63115;BME280;49208;50.874;6.466;2023-04-07T15:43:58;100693.66;;;10.36;91.14
63115;BME280;49208;50.874;6.466;2023-04-07T15:46:24;100704.28;;;10.36;92.15
63115;BME280;49208;50.874;6.466;2023-04-07T15:48:50;100699.78;;;10.38;92.15
63115;BME280;49208;50.874;6.466;2023-04-07T15:51:16;100699.63;;;10.42;91.75
63115;BME280;49208;50.874;6.466;2023-04-07T15:53:41;100703.34;;;10.37;91.22
63115;BME280;49208;50.874;6.466;2023-04-07T15:56:07;100705.97;;;10.38;90.40
63115;BME280;49208;50.874;6.466;2023-04-07T15:58:33;100713.22;;;10.33;89.17
63115;BME280;49208;50.874;6.466;2023-04-07T16:00:58;100709.81;;;10.28;88.58
63115;BME280;49208;50.874;6.466;2023-04-07T16:03:24;100713.53;;;10.21;89.24
63115;BME280;49208;50.874;6.466;2023-04-07T16:05:51;100712.00;;;10.14;89.43
63115;BME280;49208;50.874;6.466;2023-04-07T16:08:17;100716.78;;;10.02;91.86
63115;BME280;49208;50.874;6.466;2023-04-07T16:10:42;100720.53;;;9.94;92.44
63115;BME280;49208;50.874;6.466;2023-04-07T16:13:08;100719.13;;;9.82;94.08
63115;BME280;49208;50.874;6.466;2023-04-07T16:15:34;100714.00;;;9.74;95.78
63115;BME280;49208;50.874;6.466;2023-04-07T16:18:03;100716.03;;;9.64;97.03
63115;BME280;49208;50.874;6.466;2023-04-07T16:20:29;100727.81;;;9.56;97.34
63115;BME280;49208;50.874;6.466;2023-04-07T16:22:55;100726.25;;;9.48;98.10
63115;BME280;49208;50.874;6.466;2023-04-07T16:25:20;100725.63;;;9.37;99.18
63115;BME280;49208;50.874;6.466;2023-04-07T16:27:45;100736.53;;;9.26;100.00
63115;BME280;49208;50.874;6.466;2023-04-07T16:30:12;100737.69;;;9.16;100.00
63115;BME280;49208;50.874;6.466;2023-04-07T16:32:38;100737.00;;;9.08;100.00
63115;BME280;49208;50.874;6.466;2023-04-07T16:35:04;100738.00;;;9.02;100.00
63115;BME280;49208;50.874;6.466;2023-04-07T16:37:30;100739.88;;;8.99;100.00
63115;BME280;49208;50.874;6.466;2023-04-07T16:39:56;100745.25;;;8.96;100.00
63115;BME280;49208;50.874;6.466;2023-04-07T16:42:26;100743.59;;;8.92;100.00
63115;BME280;49208;50.874;6.466;2023-04-07T16:44:54;100745.44;;;8.88;100.00
63115;BME280;49208;50.874;6.466;2023-04-07T16:47:26;100742.88;;;8.85;100.00
63115;BME280;49208;50.874;6.466;2023-04-07T16:49:51;100745.56;;;8.83;100.00
63115;BME280;49208;50.874;6.466;2023-04-07T16:52:17;100753.50;;;8.83;100.00
63115;BME280;49208;50.874;6.466;2023-04-07T16:54:42;100750.84;;;8.83;100.00
63115;BME280;49208;50.874;6.466;2023-04-07T16:57:08;100755.31;;;8.83;100.00
63115;BME280;49208;50.874;6.466;2023-04-07T16:59:33;100759.78;;;8.81;100.00
63115;BME280;49208;50.874;6.466;2023-04-07T17:02:08;100757.16;;;8.79;100.00
63115;BME280;49208;50.874;6.466;2023-04-07T17:04:36;100759.81;;;8.78;100.00
63115;BME280;49208;50.874;6.466;2023-04-07T17:07:01;100764.31;;;8.76;100.00
63115;BME280;49208;50.874;6.466;2023-04-07T17:09:27;100765.31;;;8.72;100.00
63115;BME280;49208;50.874;6.466;2023-04-07T17:11:52;100760.03;;;8.70;100.00
63115;BME280;49208;50.874;6.466;2023-04-07T17:14:19;100768.94;;;8.67;100.00
63115;BME280;49208;50.874;6.466;2023-04-07T17:16:44;100775.13;;;8.66;100.00
63115;BME280;49208;50.874;6.466;2023-04-07T17:19:10;100770.78;;;8.64;100.00
63115;BME280;49208;50.874;6.466;2023-04-07T17:21:35;100776.13;;;8.61;100.00
63115;BME280;49208;50.874;6.466;2023-04-07T17:24:01;100776.22;;;8.58;100.00
63115;BME280;49208;50.874;6.466;2023-04-07T17:26:27;100775.38;;;8.56;100.00
63115;BME280;49208;50.874;6.466;2023-04-07T17:28:52;100782.47;;;8.55;100.00
63115;BME280;49208;50.874;6.466;2023-04-07T17:31:18;100789.53;;;8.55;100.00
63115;BME280;49208;50.874;6.466;2023-04-07T17:33:43;100794.84;;;8.55;100.00
63115;BME280;49208;50.874;6.466;2023-04-07T17:36:08;100797.50;;;8.55;100.00
63115;BME280;49208;50.874;6.466;2023-04-07T17:38:34;100797.50;;;8.55;100.00
63115;BME280;49208;50.874;6.466;2023-04-07T17:40:59;100802.81;;;8.55;100.00
63115;BME280;49208;50.874;6.466;2023-04-07T17:43:28;100804.59;;;8.54;100.00
63115;BME280;49208;50.874;6.466;2023-04-07T17:45:54;100804.63;;;8.53;100.00
63115;BME280;49208;50.874;6.466;2023-04-07T17:48:20;100802.03;;;8.51;100.00
63115;BME280;49208;50.874;6.466;2023-04-07T17:50:48;100805.56;;;8.50;100.00
63115;BME280;49208;50.874;6.466;2023-04-07T17:53:15;100811.81;;;8.47;100.00
63115;BME280;49208;50.874;6.466;2023-04-07T17:55:40;100813.63;;;8.45;100.00
63115;BME280;49208;50.874;6.466;2023-04-07T17:58:06;100818.94;;;8.44;100.00
63115;BME280;49208;50.874;6.466;2023-04-07T18:00:32;100816.38;;;8.41;100.00
63115;BME280;49208;50.874;6.466;2023-04-07T18:02:58;100819.03;;;8.38;100.00
63115;BME280;49208;50.874;6.466;2023-04-07T18:05:24;100813.84;;;8.33;100.00
63115;BME280;49208;50.874;6.466;2023-04-07T18:07:49;100822.78;;;8.29;100.00
63115;BME280;49208;50.874;6.466;2023-04-07T18:10:15;100820.19;;;8.26;100.00
63115;BME280;49208;50.874;6.466;2023-04-07T18:12:43;100829.13;;;8.20;100.00
63115;BME280;49208;50.874;6.466;2023-04-07T18:15:08;100830.13;;;8.15;100.00
63115;BME280;49208;50.874;6.466;2023-04-07T18:17:34;100834.56;;;8.13;100.00
63115;BME280;49208;50.874;6.466;2023-04-07T18:20:00;100839.06;;;8.09;100.00
63115;BME280;49208;50.874;6.466;2023-04-07T18:22:26;100832.03;;;8.06;100.00
63115;BME280;49208;50.874;6.466;2023-04-07T18:24:52;100836.50;;;8.04;100.00
63115;BME280;49208;50.874;6.466;2023-04-07T18:27:18;100840.09;;;8.02;100.00
63115;BME280;49208;50.874;6.466;2023-04-07T18:29:44;100842.84;;;7.97;100.00
63115;BME280;49208;50.874;6.466;2023-04-07T18:32:11;100842.00;;;7.94;100.00
63115;BME280;49208;50.874;6.466;2023-04-07T18:34:36;100848.25;;;7.89;100.00
63115;BME280;49208;50.874;6.466;2023-04-07T18:37:02;100850.06;;;7.87;100.00
63115;BME280;49208;50.874;6.466;2023-04-07T18:39:27;100859.81;;;7.85;100.00
63115;BME280;49208;50.874;6.466;2023-04-07T18:41:53;100861.63;;;7.83;100.00
63115;BME280;49208;50.874;6.466;2023-04-07T18:44:19;100857.19;;;7.84;100.00
63115;BME280;49208;50.874;6.466;2023-04-07T18:46:44;100864.28;;;7.83;100.00
63115;BME280;49208;50.874;6.466;2023-04-07T18:49:11;100866.06;;;7.83;100.00
63115;BME280;49208;50.874;6.466;2023-04-07T18:51:37;100869.56;;;7.83;100.00
63115;BME280;49208;50.874;6.466;2023-04-07T18:54:03;100873.16;;;7.82;100.00
63115;BME280;49208;50.874;6.466;2023-04-07T18:56:30;100880.25;;;7.80;100.00